Time;durP1;ratioP1;P1;durP2;ratioP2;P2;SDS_P1;SDS_P2;PMS_P1;PMS_P2;Temp;Humidity;BMP_temperature;BMP_pressure;BME280_temperature;BME280_humidity;BME280_pressure;Samples;Min_cycle;Max_cycle;Signal;HPM_P1;HPM_P2
2022/07/13 00:00:25;;;;;;;1.10;1.00;;;27.20;38.30;;;;;;5068311;28;45379;-71
2022/07/13 00:02:52;;;;;;;1.27;1.17;;;27.10;38.20;;;;;;5067830;28;45216;-72
2022/07/13 00:05:19;;;;;;;1.20;1.08;;;27.10;38.80;;;;;;5068210;28;45250;-72
2022/07/13 00:07:45;;;;;;;1.00;1.00;;;27.10;38.10;;;;;;5068175;28;45375;-72
2022/07/13 00:10:12;;;;;;;1.10;1.00;;;27.10;38.30;;;;;;5068192;28;45497;-73
2022/07/13 00:12:41;;;;;;;1.42;1.20;;;27.00;38.20;;;;;;5067772;28;45290;-72
2022/07/13 00:15:09;;;;;;;1.13;1.02;;;27.00;38.30;;;;;;5066659;28;45164;-72
2022/07/13 00:17:35;;;;;;;0.98;0.98;;;27.00;38.20;;;;;;5067870;28;45272;-72
2022/07/13 00:20:02;;;;;;;1.95;1.17;;;27.00;38.40;;;;;;5068250;28;45453;-72
2022/07/13 00:22:29;;;;;;;1.30;1.20;;;27.00;38.40;;;;;;5067538;28;45727;-72
2022/07/13 00:24:56;;;;;;;1.20;1.10;;;27.00;38.40;;;;;;5067690;28;45212;-72
2022/07/13 00:27:23;;;;;;;1.00;0.90;;;26.90;38.30;;;;;;5067621;28;45268;-72
2022/07/13 00:29:51;;;;;;;1.23;1.10;;;26.90;38.40;;;;;;5067684;28;45218;-72
2022/07/13 00:32:18;;;;;;;1.10;1.00;;;26.90;38.30;;;;;;5067547;28;47362;-72
2022/07/13 00:34:45;;;;;;;1.25;1.15;;;26.90;38.40;;;;;;5067212;28;45295;-72
2022/07/13 00:37:12;;;;;;;2.25;1.38;;;26.80;38.30;;;;;;5067553;28;45261;-71
2022/07/13 00:39:39;;;;;;;1.58;1.00;;;26.80;38.40;;;;;;5067650;28;45362;-71
2022/07/13 00:42:06;;;;;;;1.60;1.08;;;26.80;38.40;;;;;;5066986;28;46406;-72
2022/07/13 00:44:33;;;;;;;1.10;1.00;;;26.80;38.40;;;;;;5067352;28;45383;-72
2022/07/13 00:47:01;;;;;;;0.88;0.88;;;26.80;38.50;;;;;;5067281;28;45325;-71
2022/07/13 00:49:28;;;;;;;0.80;0.80;;;26.70;38.60;;;;;;5067592;28;45237;-71
2022/07/13 00:51:55;;;;;;;1.13;1.00;;;26.70;38.50;;;;;;5067164;28;46564;-71
2022/07/13 00:54:28;;;;;;;0.90;0.90;;;26.70;38.60;;;;;;5067147;28;45438;-71
2022/07/13 00:56:55;;;;;;;1.67;1.10;;;26.70;38.50;;;;;;5067197;28;45275;-71
2022/07/13 00:59:22;;;;;;;1.10;1.00;;;26.60;38.60;;;;;;5067450;28;45323;-71
2022/07/13 01:01:48;;;;;;;0.95;0.95;;;26.60;38.70;;;;;;5066851;28;46443;-72
2022/07/13 01:04:16;;;;;;;0.85;0.80;;;26.60;38.60;;;;;;5066861;28;45255;-71
2022/07/13 01:06:43;;;;;;;1.20;1.10;;;26.60;38.70;;;;;;5067044;28;45169;-71
2022/07/13 01:09:10;;;;;;;1.00;1.00;;;26.50;38.60;;;;;;5067175;28;45227;-72
2022/07/13 01:11:37;;;;;;;0.90;0.90;;;26.60;38.70;;;;;;5066638;28;46380;-72
2022/07/13 01:14:04;;;;;;;0.88;0.88;;;26.50;38.60;;;;;;5066813;28;45388;-71
2022/07/13 01:16:30;;;;;;;1.00;1.00;;;26.50;38.70;;;;;;5066693;28;45256;-71
2022/07/13 01:18:58;;;;;;;1.25;0.90;;;26.50;38.70;;;;;;5067016;28;45456;-71
2022/07/13 01:21:26;;;;;;;1.90;1.10;;;26.50;38.80;;;;;;5066699;28;45212;-71
2022/07/13 01:23:54;;;;;;;0.80;0.80;;;26.50;39.40;;;;;;5066603;28;45345;-71
2022/07/13 01:26:21;;;;;;;1.70;0.98;;;26.40;38.90;;;;;;5066503;28;45242;-71
2022/07/13 01:28:48;;;;;;;1.33;1.00;;;26.40;38.80;;;;;;5066832;28;45205;-71
2022/07/13 01:31:26;;;;;;;1.40;0.90;;;26.40;38.70;;;;;;5066334;28;46402;-71
2022/07/13 01:33:53;;;;;;;1.20;0.90;;;26.40;39.50;;;;;;5066215;28;45295;-71
2022/07/13 01:36:19;;;;;;;1.10;1.00;;;26.40;38.90;;;;;;5066576;28;45379;-72
2022/07/13 01:38:46;;;;;;;1.20;0.93;;;26.40;39.00;;;;;;5066640;28;45287;-71
2022/07/13 01:41:14;;;;;;;0.98;0.98;;;26.40;38.80;;;;;;5066159;28;45230;-72
2022/07/13 01:43:41;;;;;;;0.88;0.88;;;26.30;38.90;;;;;;5066301;28;45149;-71
2022/07/13 01:46:08;;;;;;;0.85;0.85;;;26.30;38.90;;;;;;5066374;28;45329;-71
2022/07/13 01:48:35;;;;;;;0.82;0.82;;;26.30;38.90;;;;;;5066460;28;45473;-71
2022/07/13 01:51:02;;;;;;;1.00;1.00;;;26.30;39.10;;;;;;5065956;28;45246;-71
2022/07/13 01:53:29;;;;;;;0.90;0.90;;;26.30;38.90;;;;;;5066078;28;45142;-71
2022/07/13 01:55:56;;;;;;;0.90;0.90;;;26.20;39.00;;;;;;5066514;28;45256;-71
2022/07/13 01:58:24;;;;;;;1.30;0.85;;;26.20;39.00;;;;;;5066528;28;45406;-71
2022/07/13 02:00:50;;;;;;;1.70;1.10;;;26.20;39.00;;;;;;5065793;28;46946;-71
2022/07/13 02:03:17;;;;;;;0.80;0.80;;;26.20;39.00;;;;;;5065995;28;45200;-71
2022/07/13 02:05:44;;;;;;;1.48;0.93;;;26.10;39.10;;;;;;5066129;28;45150;-71
2022/07/13 02:08:11;;;;;;;0.77;0.77;;;26.10;39.00;;;;;;5066320;28;45273;-72
2022/07/13 02:10:38;;;;;;;0.82;0.80;;;26.10;39.00;;;;;;5065933;28;46520;-72
2022/07/13 02:13:05;;;;;;;0.80;0.80;;;26.10;39.00;;;;;;5065746;28;45306;-71
2022/07/13 02:15:33;;;;;;;0.85;0.85;;;26.10;39.10;;;;;;5066108;28;45339;-71
2022/07/13 02:18:00;;;;;;;0.88;0.88;;;26.10;39.00;;;;;;5066252;28;45478;-71
2022/07/13 02:20:26;;;;;;;0.73;0.73;;;26.00;39.00;;;;;;5065718;28;46488;-71
2022/07/13 02:22:53;;;;;;;0.70;0.70;;;26.00;39.10;;;;;;5065692;28;45354;-71
2022/07/13 02:25:20;;;;;;;1.17;0.85;;;26.00;39.10;;;;;;5065858;28;45359;-71
2022/07/13 02:27:47;;;;;;;0.90;0.88;;;26.00;39.10;;;;;;5065968;28;45299;-71
2022/07/13 02:30:14;;;;;;;0.88;0.85;;;26.00;39.20;;;;;;5065613;28;45434;-71
2022/07/13 02:32:45;;;;;;;0.90;0.90;;;26.00;39.00;;;;;;5065304;28;45190;-71
2022/07/13 02:35:11;;;;;;;0.75;0.75;;;25.90;39.80;;;;;;5065768;28;45303;-71
2022/07/13 02:37:38;;;;;;;0.90;0.90;;;25.90;39.10;;;;;;5065118;28;45537;-71
2022/07/13 02:40:07;;;;;;;0.80;0.80;;;25.90;39.10;;;;;;5065444;28;45261;-71
2022/07/13 02:42:34;;;;;;;0.70;0.70;;;25.90;39.20;;;;;;5064092;28;45380;-71
2022/07/13 02:45:01;;;;;;;0.70;0.70;;;25.90;39.10;;;;;;5065714;28;45325;-71
2022/07/13 02:47:27;;;;;;;0.80;0.80;;;25.90;39.30;;;;;;5062993;28;45310;-71
2022/07/13 02:49:56;;;;;;;0.60;0.60;;;25.90;39.10;;;;;;5065248;28;47316;-71
2022/07/13 02:52:22;;;;;;;0.60;0.60;;;25.80;39.20;;;;;;5065260;28;45252;-71
2022/07/13 02:54:49;;;;;;;0.73;0.73;;;25.80;39.20;;;;;;5065435;28;45336;-71
2022/07/13 02:57:16;;;;;;;0.68;0.68;;;25.80;39.30;;;;;;5065606;28;45381;-71
2022/07/13 02:59:43;;;;;;;0.90;0.90;;;25.80;39.30;;;;;;5065151;28;46406;-71
2022/07/13 03:02:09;;;;;;;0.90;0.90;;;25.80;39.30;;;;;;5065447;28;45273;-71
2022/07/13 03:04:36;;;;;;;0.80;0.80;;;25.70;39.20;;;;;;5065260;28;45200;-71
2022/07/13 03:07:04;;;;;;;0.80;0.80;;;25.70;39.30;;;;;;5065493;28;45324;-71
2022/07/13 03:09:31;;;;;;;1.02;0.93;;;25.70;39.30;;;;;;5064932;28;46393;-71
2022/07/13 03:11:58;;;;;;;1.33;0.90;;;25.70;39.30;;;;;;5065022;28;45227;-71
2022/07/13 03:14:25;;;;;;;0.70;0.70;;;25.70;39.40;;;;;;5065116;28;45184;-71
2022/07/13 03:16:52;;;;;;;0.95;0.80;;;25.60;39.20;;;;;;5065400;28;45240;-71
2022/07/13 03:19:19;;;;;;;1.00;1.00;;;25.60;39.30;;;;;;5064892;28;46577;-71
2022/07/13 03:21:45;;;;;;;0.90;0.90;;;25.60;39.40;;;;;;5064818;28;45267;-71
2022/07/13 03:24:14;;;;;;;0.80;0.80;;;25.60;39.40;;;;;;5064996;28;45378;-71
2022/07/13 03:26:40;;;;;;;0.75;0.75;;;25.60;39.30;;;;;;5065155;28;45126;-71
2022/07/13 03:29:07;;;;;;;0.75;0.75;;;25.50;39.30;;;;;;5064661;28;47313;-71
2022/07/13 03:31:34;;;;;;;0.80;0.80;;;25.50;39.40;;;;;;5064666;28;45367;-71
2022/07/13 03:34:01;;;;;;;0.88;0.88;;;25.50;39.40;;;;;;5064602;28;45280;-72
2022/07/13 03:36:28;;;;;;;0.85;0.70;;;25.50;39.60;;;;;;5065202;28;45257;-70
2022/07/13 03:38:54;;;;;;;0.50;0.50;;;25.50;39.40;;;;;;5064583;28;45210;-70
2022/07/13 03:41:23;;;;;;;0.95;0.95;;;25.50;40.10;;;;;;5064571;28;45239;-70
2022/07/13 03:43:49;;;;;;;0.70;0.70;;;25.50;39.50;;;;;;5064755;28;45315;-69
2022/07/13 03:46:16;;;;;;;0.80;0.80;;;25.50;39.50;;;;;;5065069;28;45316;-69
2022/07/13 03:48:43;;;;;;;0.80;0.80;;;25.40;39.60;;;;;;5065153;28;46369;-70
2022/07/13 03:51:10;;;;;;;0.80;0.80;;;25.40;39.60;;;;;;5068147;28;45292;-70
2022/07/13 03:53:37;;;;;;;0.70;0.70;;;25.40;39.50;;;;;;5068011;28;45208;-70
2022/07/13 03:56:05;;;;;;;1.15;0.88;;;25.40;39.60;;;;;;5068256;28;45407;-69
2022/07/13 03:58:33;;;;;;;0.80;0.80;;;25.40;39.60;;;;;;5067899;28;46500;-70
2022/07/13 04:01:00;;;;;;;0.90;0.90;;;25.30;39.50;;;;;;5067808;28;45240;-69
2022/07/13 04:03:27;;;;;;;0.80;0.80;;;25.30;39.60;;;;;;5068118;28;45340;-70
2022/07/13 04:05:54;;;;;;;0.68;0.68;;;25.30;39.50;;;;;;5068114;28;45395;-70
2022/07/13 04:08:20;;;;;;;0.73;0.73;;;25.30;39.60;;;;;;5067644;28;45308;-70
2022/07/13 04:10:47;;;;;;;0.70;0.70;;;25.30;39.50;;;;;;5067705;28;45243;-70
2022/07/13 04:13:14;;;;;;;0.88;0.88;;;25.30;39.60;;;;;;5067661;28;45232;-70
2022/07/13 04:15:42;;;;;;;0.70;0.70;;;25.30;39.70;;;;;;5067902;28;45180;-69
2022/07/13 04:18:09;;;;;;;0.70;0.70;;;25.30;39.70;;;;;;5067466;28;45384;-70
2022/07/13 04:20:36;;;;;;;0.80;0.80;;;25.20;39.60;;;;;;5067559;28;45291;-70
2022/07/13 04:23:03;;;;;;;1.05;0.80;;;25.20;39.70;;;;;;5067708;28;45370;-70
2022/07/13 04:25:30;;;;;;;0.93;0.70;;;25.20;39.70;;;;;;5067796;28;45397;-70
2022/07/13 04:27:56;;;;;;;0.60;0.60;;;25.20;39.80;;;;;;5067526;27;45216;-70
2022/07/13 04:30:23;;;;;;;0.60;0.60;;;25.20;39.70;;;;;;5067279;28;45224;-70
2022/07/13 04:32:51;;;;;;;0.80;0.80;;;25.10;39.80;;;;;;5067400;28;45204;-70
2022/07/13 04:35:18;;;;;;;0.90;0.90;;;25.10;39.70;;;;;;5067554;28;45332;-70
2022/07/13 04:37:45;;;;;;;0.80;0.80;;;25.10;39.70;;;;;;5067255;28;46477;-70
2022/07/13 04:40:13;;;;;;;1.25;0.80;;;25.10;39.80;;;;;;5067322;28;45122;-70
2022/07/13 04:42:39;;;;;;;0.80;0.80;;;25.10;39.80;;;;;;5067320;28;45181;-70
2022/07/13 04:45:07;;;;;;;0.90;0.90;;;25.10;39.80;;;;;;5067602;28;45433;-70
2022/07/13 04:47:34;;;;;;;0.80;0.80;;;25.10;39.80;;;;;;5067071;28;45294;-70
2022/07/13 04:50:02;;;;;;;0.80;0.80;;;25.00;39.80;;;;;;5067109;28;45150;-70
2022/07/13 04:52:29;;;;;;;0.80;0.80;;;25.00;39.90;;;;;;5067203;28;45266;-70
2022/07/13 04:54:56;;;;;;;0.60;0.60;;;25.00;39.90;;;;;;5067600;28;45466;-70
2022/07/13 04:57:22;;;;;;;0.80;0.80;;;25.00;39.90;;;;;;5066958;28;46322;-70
2022/07/13 04:59:49;;;;;;;1.00;1.00;;;25.00;39.90;;;;;;5066799;28;45239;-70
2022/07/13 05:02:16;;;;;;;0.70;0.63;;;25.00;40.00;;;;;;5066462;28;45188;-70
2022/07/13 05:04:43;;;;;;;1.00;0.90;;;25.00;39.90;;;;;;5067374;28;45328;-70
2022/07/13 05:07:11;;;;;;;0.65;0.65;;;25.00;39.90;;;;;;5066584;28;46657;-70
2022/07/13 05:09:38;;;;;;;0.90;0.90;;;24.90;40.00;;;;;;5066884;28;45295;-70
2022/07/13 05:12:05;;;;;;;1.35;0.77;;;25.00;40.00;;;;;;5066800;28;45362;-69
2022/07/13 05:14:32;;;;;;;0.70;0.70;;;25.00;39.90;;;;;;5067252;28;45449;-70
2022/07/13 05:16:59;;;;;;;0.70;0.70;;;25.00;39.90;;;;;;5066866;28;45168;-69
2022/07/13 05:19:25;;;;;;;0.60;0.60;;;25.00;39.80;;;;;;5066530;28;45251;-70
2022/07/13 05:21:52;;;;;;;0.82;0.80;;;25.00;39.80;;;;;;5066678;28;45318;-71
2022/07/13 05:24:20;;;;;;;0.60;0.60;;;25.00;39.80;;;;;;5066839;28;45378;-69
2022/07/13 05:26:47;;;;;;;0.73;0.73;;;25.00;39.70;;;;;;5066414;28;47312;-70
2022/07/13 05:29:14;;;;;;;0.80;0.77;;;25.10;39.60;;;;;;5066513;28;45305;-70
2022/07/13 05:31:41;;;;;;;0.80;0.80;;;25.10;39.60;;;;;;5066435;28;45213;-71
2022/07/13 05:34:07;;;;;;;1.15;0.77;;;25.00;39.60;;;;;;5066656;28;45296;-70
2022/07/13 05:36:34;;;;;;;0.80;0.70;;;25.00;39.60;;;;;;5066170;28;45313;-70
2022/07/13 05:39:01;;;;;;;1.23;0.68;;;25.00;39.60;;;;;;5066275;28;45173;-70
2022/07/13 05:41:29;;;;;;;0.98;0.77;;;25.00;39.50;;;;;;5066357;28;45314;-70
2022/07/13 05:43:56;;;;;;;0.80;0.80;;;25.00;39.60;;;;;;5067365;28;45513;-70
2022/07/13 05:46:23;;;;;;;0.70;0.70;;;25.00;39.60;;;;;;5066986;28;46419;-70
2022/07/13 05:48:50;;;;;;;0.82;0.82;;;25.00;39.50;;;;;;5067333;28;45375;-70
2022/07/13 05:51:17;;;;;;;0.60;0.60;;;25.00;39.40;;;;;;5067138;28;45238;-70
2022/07/13 05:53:44;;;;;;;0.60;0.60;;;25.00;39.60;;;;;;5067286;28;45248;-70
2022/07/13 05:56:11;;;;;;;0.80;0.80;;;25.00;39.60;;;;;;5066718;28;48444;-70
2022/07/13 05:58:39;;;;;;;0.60;0.60;;;25.00;39.60;;;;;;5066507;28;45289;-70
2022/07/13 06:01:06;;;;;;;0.95;0.77;;;25.00;39.70;;;;;;5067013;28;45399;-70
2022/07/13 06:03:33;;;;;;;0.88;0.80;;;25.00;39.70;;;;;;5067328;28;45251;-70
2022/07/13 06:05:59;;;;;;;1.17;0.82;;;25.00;39.70;;;;;;5067040;28;46764;-70
2022/07/13 06:08:26;;;;;;;0.60;0.60;;;25.00;39.60;;;;;;5066825;28;45342;-70
2022/07/13 06:10:53;;;;;;;1.08;0.90;;;25.00;39.70;;;;;;5066752;28;45236;-70
2022/07/13 06:13:20;;;;;;;0.80;0.63;;;25.00;39.70;;;;;;5066161;28;45364;-70
2022/07/13 06:15:48;;;;;;;2.10;0.68;;;25.00;39.70;;;;;;5066697;28;45303;-70
2022/07/13 06:18:15;;;;;;;0.70;0.70;;;25.00;39.70;;;;;;5066737;28;45214;-70
2022/07/13 06:20:42;;;;;;;0.63;0.63;;;25.00;39.70;;;;;;5066783;28;45307;-70
2022/07/13 06:23:11;;;;;;;0.80;0.80;;;25.00;39.80;;;;;;5067100;28;45328;-70
2022/07/13 06:25:38;;;;;;;0.73;0.70;;;25.00;39.70;;;;;;5066488;28;46414;-70
2022/07/13 06:28:05;;;;;;;0.77;0.75;;;25.00;39.70;;;;;;5066777;28;45227;-70
2022/07/13 06:30:32;;;;;;;0.80;0.80;;;25.10;39.80;;;;;;5066694;28;45349;-70
2022/07/13 06:33:00;;;;;;;0.80;0.80;;;25.10;39.80;;;;;;5066931;28;45356;-70
2022/07/13 06:35:27;;;;;;;1.42;0.70;;;25.10;39.70;;;;;;5066218;28;46411;-72
2022/07/13 06:37:54;;;;;;;1.15;1.05;;;25.10;39.70;;;;;;5066686;28;45263;-71
2022/07/13 06:40:21;;;;;;;2.60;1.10;;;25.10;40.70;;;;;;5066499;28;45188;-70
2022/07/13 06:42:47;;;;;;;1.00;1.00;;;25.10;41.20;;;;;;5066135;28;45335;-71
2022/07/13 06:45:14;;;;;;;1.10;1.00;;;25.10;41.20;;;;;;5066026;28;46432;-72
2022/07/13 06:47:42;;;;;;;0.98;0.80;;;25.10;41.50;;;;;;5066382;28;45314;-71
2022/07/13 06:50:10;;;;;;;1.23;1.10;;;25.10;41.50;;;;;;5066554;28;45232;-71
2022/07/13 06:52:40;;;;;;;2.05;1.08;;;25.10;41.60;;;;;;5066207;28;45292;-72
2022/07/13 06:55:07;;;;;;;1.63;1.10;;;25.20;42.10;;;;;;5066188;28;45298;-73
2022/07/13 06:57:34;;;;;;;2.65;1.25;;;25.20;42.20;;;;;;5066454;28;45238;-72
2022/07/13 07:00:01;;;;;;;2.40;1.30;;;25.10;42.20;;;;;;5066434;28;45312;-74
2022/07/13 07:02:28;;;;;;;1.35;1.00;;;25.20;42.60;;;;;;5066588;28;45310;-71
2022/07/13 07:04:55;;;;;;;1.23;1.10;;;25.20;43.20;;;;;;5066077;28;46316;-71
2022/07/13 07:07:23;;;;;;;3.05;1.00;;;25.20;43.40;;;;;;5066231;28;45239;-71
2022/07/13 07:09:50;;;;;;;1.33;1.20;;;25.20;43.50;;;;;;5066131;28;45297;-72
2022/07/13 07:12:17;;;;;;;1.38;1.17;;;25.20;43.60;;;;;;5066310;28;45419;-71
2022/07/13 07:14:44;;;;;;;4.38;1.40;;;25.20;43.70;;;;;;5065959;28;46881;-71
2022/07/13 07:17:11;;;;;;;2.05;1.20;;;25.20;43.40;;;;;;5065690;28;45352;-71
2022/07/13 07:19:38;;;;;;;1.40;1.05;;;25.20;43.30;;;;;;5066195;28;45154;-71
2022/07/13 07:22:04;;;;;;;1.00;1.00;;;25.30;43.40;;;;;;5066221;28;45185;-71
2022/07/13 07:24:33;;;;;;;1.77;0.90;;;25.30;43.60;;;;;;5067584;28;46656;-71
2022/07/13 07:26:59;;;;;;;1.40;1.05;;;25.30;43.60;;;;;;5069523;28;45330;-71
2022/07/13 07:29:26;;;;;;;2.00;1.20;;;25.30;43.30;;;;;;5069359;28;45272;-72
2022/07/13 07:31:53;;;;;;;1.20;1.10;;;25.40;44.10;;;;;;5069674;28;45193;-71
2022/07/13 07:34:20;;;;;;;1.90;0.95;;;25.40;43.80;;;;;;5069105;28;46534;-72
2022/07/13 07:36:47;;;;;;;2.45;1.50;;;25.40;43.60;;;;;;5069789;28;45596;-72
2022/07/13 07:39:13;;;;;;;1.40;1.05;;;25.40;44.00;;;;;;5069352;28;45320;-72
2022/07/13 07:41:42;;;;;;;2.50;1.27;;;25.40;43.70;;;;;;5069591;28;45417;-72
2022/07/13 07:44:09;;;;;;;3.03;1.30;;;25.40;43.50;;;;;;5068989;28;45437;-71
2022/07/13 07:46:36;;;;;;;1.23;1.00;;;25.50;43.70;;;;;;5070434;28;45252;-71
2022/07/13 07:49:03;;;;;;;2.67;1.10;;;25.50;43.60;;;;;;5069388;28;45454;-71
2022/07/13 07:51:30;;;;;;;1.58;1.38;;;25.60;44.70;;;;;;5069589;28;45422;-71
2022/07/13 07:53:57;;;;;;;1.80;1.02;;;25.60;43.50;;;;;;5069019;28;45298;-71
2022/07/13 07:56:24;;;;;;;3.15;1.13;;;25.60;44.40;;;;;;5069127;28;45310;-70
2022/07/13 07:58:52;;;;;;;4.00;1.20;;;25.60;44.40;;;;;;5069321;28;45272;-72
2022/07/13 08:01:19;;;;;;;1.33;1.10;;;25.70;44.50;;;;;;5069231;28;45481;-72
2022/07/13 08:03:46;;;;;;;1.48;1.08;;;25.70;44.90;;;;;;5068949;28;45451;-72
2022/07/13 08:06:13;;;;;;;1.17;1.10;;;25.80;44.30;;;;;;5069227;28;45220;-72
2022/07/13 08:08:40;;;;;;;1.70;1.10;;;25.80;44.20;;;;;;5069441;28;45243;-72
2022/07/13 08:11:07;;;;;;;2.63;1.17;;;25.90;44.10;;;;;;5069299;28;45205;-73
2022/07/13 08:13:34;;;;;;;1.85;1.23;;;26.00;44.10;;;;;;5068014;28;46397;-73
2022/07/13 08:16:03;;;;;;;2.83;1.15;;;26.00;44.10;;;;;;5068662;28;45485;-73
2022/07/13 08:18:30;;;;;;;1.15;1.05;;;26.00;43.90;;;;;;5069073;28;45186;-72
2022/07/13 08:20:56;;;;;;;1.33;1.17;;;26.00;43.60;;;;;;5069078;28;45402;-73
2022/07/13 08:26:16;;;;;;;2.28;1.05;;;26.10;43.50;;;;;;5031338;28;45257;-73
2022/07/13 08:28:44;;;;;;;2.42;1.00;;;26.20;43.30;;;;;;5068763;28;45306;-72
2022/07/13 08:31:12;;;;;;;0.90;0.90;;;26.20;42.90;;;;;;5069244;28;45477;-73
2022/07/13 08:39:04;;;;;;;1.55;0.98;;;26.40;42.30;;;;;;5065919;28;45442;-72
2022/07/13 08:41:32;;;;;;;1.08;0.80;;;26.40;42.20;;;;;;5069584;28;45383;-73
2022/07/13 08:43:59;;;;;;;2.10;1.02;;;26.40;41.60;;;;;;5070277;27;45509;-71
2022/07/13 08:46:27;;;;;;;1.20;0.82;;;26.50;41.50;;;;;;5069635;28;45292;-71
2022/07/13 08:48:54;;;;;;;1.52;0.80;;;26.50;41.40;;;;;;5069061;28;45319;-71
2022/07/13 08:51:21;;;;;;;0.90;0.90;;;26.50;41.50;;;;;;5068533;28;45403;-71
2022/07/13 08:53:48;;;;;;;1.02;0.80;;;26.50;41.60;;;;;;5067587;28;46409;-70
2022/07/13 08:56:15;;;;;;;0.90;0.90;;;26.60;41.70;;;;;;5067831;28;45244;-71
2022/07/13 08:58:42;;;;;;;2.00;0.80;;;26.60;41.60;;;;;;5068168;28;45233;-71
2022/07/13 09:01:09;;;;;;;2.55;0.90;;;26.60;41.60;;;;;;5068485;28;45533;-71
2022/07/13 09:03:37;;;;;;;1.00;0.90;;;26.60;41.60;;;;;;5067539;28;45355;-71
2022/07/13 09:06:04;;;;;;;1.23;1.00;;;26.70;41.20;;;;;;5067919;28;45301;-70
2022/07/13 09:08:31;;;;;;;2.75;1.08;;;26.70;41.10;;;;;;5067738;28;45130;-71
2022/07/13 09:10:58;;;;;;;2.53;0.80;;;26.80;41.20;;;;;;5068090;28;45190;-71
2022/07/13 09:13:39;;;;;;;0.98;0.90;;;26.80;40.80;;;;;;5067658;28;46280;-70
2022/07/13 09:16:13;;;;;;;1.65;0.80;;;26.90;40.80;;;;;;5067707;28;45231;-71
2022/07/13 09:18:41;;;;;;;1.17;0.77;;;26.90;40.20;;;;;;5067666;28;45273;-71
2022/07/13 09:21:09;;;;;;;1.58;0.75;;;26.90;40.40;;;;;;5067634;28;45401;-69
2022/07/13 09:23:35;;;;;;;0.70;0.70;;;26.90;40.50;;;;;;5066671;28;46653;-71
2022/07/13 09:26:02;;;;;;;1.02;0.90;;;27.00;40.50;;;;;;5067633;28;45253;-71
2022/07/13 09:28:29;;;;;;;2.25;0.90;;;27.00;40.20;;;;;;5067786;28;45207;-71
2022/07/13 09:31:00;;;;;;;0.88;0.88;;;27.10;40.10;;;;;;5067706;28;45134;-71
2022/07/13 09:33:33;;;;;;;1.23;1.00;;;27.10;40.10;;;;;;5066856;28;47554;-71
2022/07/13 09:36:08;;;;;;;4.47;0.93;;;27.20;40.10;;;;;;5067400;28;45315;-71
2022/07/13 09:38:36;;;;;;;0.98;0.77;;;27.20;40.20;;;;;;5067384;28;45319;-71
2022/07/13 09:41:20;;;;;;;1.08;0.80;;;27.20;40.30;;;;;;5068016;28;45325;-72
2022/07/13 09:46:52;;;;;;;1.67;0.95;;;27.30;40.10;;;;;;5067475;28;45247;-72
2022/07/13 09:49:19;;;;;;;0.85;0.80;;;27.40;39.70;;;;;;5067513;28;45236;-72
2022/07/13 09:51:47;;;;;;;0.63;0.63;;;27.50;39.90;;;;;;5067364;28;45267;-71
2022/07/13 09:54:14;;;;;;;1.58;0.85;;;27.50;39.80;;;;;;5066890;28;46554;-71
2022/07/13 09:56:43;;;;;;;1.20;0.80;;;27.50;39.40;;;;;;5066868;28;45251;-71
2022/07/13 09:59:09;;;;;;;1.90;0.77;;;27.50;39.00;;;;;;5067310;28;45338;-71
2022/07/13 10:01:36;;;;;;;0.85;0.80;;;27.60;39.00;;;;;;5067392;28;45399;-70
2022/07/13 10:04:03;;;;;;;1.13;0.90;;;27.70;39.20;;;;;;5066616;28;45308;-70
2022/07/13 10:06:31;;;;;;;0.90;0.90;;;27.70;38.90;;;;;;5066702;28;45440;-70
2022/07/13 10:08:59;;;;;;;1.90;1.10;;;27.70;38.90;;;;;;5067036;28;45394;-70
2022/07/13 10:11:27;;;;;;;1.15;1.05;;;27.80;38.70;;;;;;5067222;28;45169;-71
2022/07/13 10:13:54;;;;;;;2.40;1.10;;;27.80;38.70;;;;;;5066626;28;46504;-71
2022/07/13 10:16:21;;;;;;;0.80;0.80;;;27.90;38.30;;;;;;5066966;28;45256;-70
2022/07/13 10:18:48;;;;;;;1.45;0.80;;;27.90;38.50;;;;;;5066891;28;45383;-71
2022/07/13 10:21:17;;;;;;;1.33;0.88;;;28.00;38.40;;;;;;5067303;28;45178;-70
2022/07/13 10:23:44;;;;;;;1.50;0.90;;;28.00;38.10;;;;;;5066382;28;45974;-70
2022/07/13 10:26:22;;;;;;;1.33;0.85;;;28.00;37.70;;;;;;5065539;28;45367;-70
2022/07/13 10:29:03;;;;;;;0.90;0.70;;;28.10;37.80;;;;;;5064182;28;45314;-70
2022/07/13 10:31:31;;;;;;;2.88;0.80;;;28.10;37.70;;;;;;5066848;28;45394;-71
2022/07/13 10:33:58;;;;;;;1.67;0.60;;;28.10;37.50;;;;;;5066089;28;45243;-71
2022/07/13 10:36:54;;;;;;;2.45;0.80;;;28.20;37.30;;;;;;5066726;28;45266;-71
2022/07/13 10:39:22;;;;;;;0.60;0.60;;;28.10;36.90;;;;;;5066603;28;45251;-72
2022/07/13 10:42:01;;;;;;;2.45;0.70;;;28.20;36.80;;;;;;5067160;28;45383;-73
2022/07/13 10:44:36;;;;;;;1.95;0.70;;;28.20;36.50;;;;;;5067717;28;46424;-71
2022/07/13 10:47:04;;;;;;;1.08;0.70;;;28.30;36.20;;;;;;5066579;28;45462;-71
2022/07/13 10:49:41;;;;;;;0.90;0.82;;;28.40;36.30;;;;;;5066545;28;45247;-72
2022/07/13 10:52:52;;;;;;;0.70;0.70;;;28.40;35.80;;;;;;5066464;28;45288;-71
2022/07/13 10:55:32;;;;;;;1.20;0.57;;;28.40;35.30;;;;;;5066661;28;45335;-71
2022/07/13 10:58:01;;;;;;;1.13;0.80;;;28.50;34.90;;;;;;5066154;28;45252;-70
2022/07/13 11:00:41;;;;;;;0.98;0.70;;;28.50;34.50;;;;;;5065943;28;45230;-71
2022/07/13 11:03:23;;;;;;;2.42;0.90;;;28.60;34.00;;;;;;5066142;28;45193;-71
2022/07/13 11:06:04;;;;;;;0.95;0.70;;;28.60;33.50;;;;;;5066164;28;46410;-71
2022/07/13 11:08:31;;;;;;;0.85;0.70;;;28.70;33.00;;;;;;5066422;28;45316;-71
2022/07/13 11:11:09;;;;;;;0.70;0.70;;;28.70;30.20;;;;;;5066355;28;45385;-71
2022/07/13 11:13:37;;;;;;;0.98;0.60;;;28.80;31.00;;;;;;5066406;28;45345;-71
2022/07/13 11:16:05;;;;;;;0.80;0.80;;;28.90;31.40;;;;;;5066013;28;45263;-71
2022/07/13 11:18:34;;;;;;;1.00;1.00;;;28.90;31.80;;;;;;5066056;28;45299;-71
2022/07/13 11:21:02;;;;;;;2.00;1.08;;;29.00;32.00;;;;;;5066372;28;45307;-72
2022/07/13 11:26:19;;;;;;;0.82;0.73;;;29.10;31.20;;;;;;5063088;28;45264;-72
2022/07/13 11:28:51;;;;;;;0.70;0.70;;;29.20;30.40;;;;;;5065524;28;45315;-72
2022/07/13 11:31:19;;;;;;;0.50;0.50;;;29.20;29.40;;;;;;5065925;28;45290;-72
2022/07/13 11:33:49;;;;;;;0.82;0.82;;;29.40;29.20;;;;;;5065739;28;45558;-72
2022/07/13 11:36:19;;;;;;;0.70;0.65;;;29.40;29.70;;;;;;5065502;28;46934;-72
2022/07/13 11:38:46;;;;;;;0.70;0.70;;;29.50;29.00;;;;;;5065816;28;45299;-72
2022/07/13 11:41:18;;;;;;;0.60;0.60;;;29.50;29.20;;;;;;5066000;28;45210;-72
2022/07/13 11:43:50;;;;;;;0.73;0.70;;;29.50;28.80;;;;;;5066285;28;45449;-73
2022/07/13 11:46:23;;;;;;;0.80;0.80;;;29.60;28.90;;;;;;5065279;28;45480;-72
2022/07/13 11:48:58;;;;;;;2.38;0.60;;;29.70;29.10;;;;;;5065039;28;45186;-72
2022/07/13 11:51:25;;;;;;;1.08;0.70;;;29.80;28.80;;;;;;5065057;28;45270;-72
2022/07/13 11:53:51;;;;;;;2.00;0.85;;;29.80;28.70;;;;;;5065309;28;45327;-72
2022/07/13 11:56:18;;;;;;;0.65;0.63;;;29.90;28.50;;;;;;5065291;28;46424;-72
2022/07/13 11:58:47;;;;;;;0.82;0.57;;;30.00;28.60;;;;;;5065461;28;45348;-71
2022/07/13 12:01:17;;;;;;;1.33;0.50;;;30.00;28.40;;;;;;5065322;28;45248;-71
2022/07/13 12:03:47;;;;;;;1.50;0.70;;;30.10;28.40;;;;;;5065444;28;45220;-71
2022/07/13 12:06:14;;;;;;;1.83;0.40;;;30.10;27.70;;;;;;5065170;28;46326;-71
2022/07/13 12:08:42;;;;;;;2.70;0.88;;;30.20;27.40;;;;;;5065198;28;45250;-70
2022/07/13 12:11:10;;;;;;;2.22;0.80;;;30.20;26.70;;;;;;5067298;28;45142;-74
2022/07/13 12:13:37;;;;;;;2.15;0.68;;;30.30;26.60;;;;;;5068531;28;45241;-75
2022/07/13 12:16:04;;;;;;;0.90;0.70;;;30.40;26.30;;;;;;5067602;28;45203;-75
2022/07/13 12:18:32;;;;;;;1.13;0.70;;;30.40;25.50;;;;;;5068821;28;45207;-74
2022/07/13 12:20:59;;;;;;;0.65;0.52;;;30.50;25.70;;;;;;5068931;28;45240;-74
2022/07/13 12:23:31;;;;;;;1.83;0.40;;;30.50;25.20;;;;;;5069227;28;45363;-75
2022/07/13 12:26:05;;;;;;;0.73;0.50;;;30.50;24.70;;;;;;5068613;28;45382;-75
2022/07/13 12:28:32;;;;;;;0.63;0.50;;;30.60;24.70;;;;;;5068374;28;45299;-72
2022/07/13 12:30:59;;;;;;;0.50;0.50;;;30.60;25.70;;;;;;5068493;28;45298;-71
2022/07/13 12:33:26;;;;;;;2.17;0.50;;;30.60;25.60;;;;;;5068341;28;45291;-71
2022/07/13 12:36:04;;;;;;;1.08;0.47;;;30.70;25.60;;;;;;5067943;28;46747;-71
2022/07/13 12:38:31;;;;;;;0.70;0.50;;;30.80;25.10;;;;;;5068423;28;45203;-71
2022/07/13 12:41:00;;;;;;;0.30;0.30;;;30.80;24.80;;;;;;5068400;28;45325;-75
2022/07/13 12:43:28;;;;;;;0.70;0.70;;;30.80;23.50;;;;;;5068572;28;45185;-73
2022/07/13 12:45:56;;;;;;;0.50;0.50;;;30.90;24.60;;;;;;5067398;28;46402;-75
2022/07/13 12:48:23;;;;;;;0.40;0.40;;;31.00;22.90;;;;;;5068313;28;45310;-75
2022/07/13 12:50:58;;;;;;;0.75;0.38;;;31.10;22.70;;;;;;5068329;28;45302;-75
2022/07/13 12:53:27;;;;;;;0.98;0.70;;;31.10;23.10;;;;;;5068319;28;45311;-73
2022/07/13 12:55:55;;;;;;;0.75;0.40;;;31.20;23.20;;;;;;5068100;28;45006;-73
2022/07/13 12:58:39;;;;;;;0.70;0.60;;;31.30;23.70;;;;;;5068253;28;45530;-73
2022/07/13 13:01:06;;;;;;;2.20;0.47;;;31.30;23.70;;;;;;5067865;28;45204;-73
2022/07/13 13:03:33;;;;;;;2.28;0.50;;;31.30;24.00;;;;;;5068299;28;45295;-73
2022/07/13 13:06:00;;;;;;;0.95;0.73;;;31.50;23.80;;;;;;5067654;28;47281;-73